Time;durP1;ratioP1;P1;durP2;ratioP2;P2;SDS_P1;SDS_P2;PMS_P1;PMS_P2;Temp;Humidity;BMP_temperature;BMP_pressure;BME280_temperature;BME280_humidity;BME280_pressure;Samples;Min_cycle;Max_cycle;Signal;HPM_P1;HPM_P2
2024/01/13 00:20:27;;;;;;;49.80;19.83;;;2.70;99.90;;;;;;5119752;23;86295;31
2024/01/13 00:25:26;;;;;;;46.85;18.52;;;2.60;99.90;;;;;;5004757;23;91205;-86
2024/01/13 00:36:37;;;;;;;45.25;20.08;;;2.60;99.90;;;;;;5041400;23;88571;-86
2024/01/13 00:57:11;;;;;;;51.03;18.83;;;2.70;99.90;;;;;;5913764;23;87785;-79
2024/01/13 00:59:42;;;;;;;40.65;18.13;;;2.80;99.90;;;;;;4904230;28;85860;-79
2024/01/13 01:02:18;;;;;;;40.60;18.75;;;2.80;99.90;;;;;;4913843;23;85720;-87
2024/01/13 08:36:00;;;;;;;23.55;11.70;;;2.90;99.90;;;;;;6227819;22;88358;-79
2024/01/13 09:04:20;;;;;;;24.23;12.85;;;3.00;99.90;;;;;;6238165;22;89793;-81
2024/01/13 09:11:57;;;;;;;27.77;15.13;;;3.00;99.90;;;;;;6204932;22;87357;-80
2024/01/13 09:16:58;;;;;;;27.58;14.07;;;3.00;99.90;;;;;;6219039;22;87018;-79
2024/01/13 09:19:26;;;;;;;26.80;15.13;;;3.10;99.90;;;;;;6223647;22;85424;-80
2024/01/13 09:21:52;;;;;;;31.08;15.70;;;3.10;99.90;;;;;;6199120;22;86098;-80
2024/01/13 09:24:19;;;;;;;32.05;14.73;;;3.10;99.90;;;;;;6201931;22;86857;-79
2024/01/13 09:27:01;;;;;;;31.48;14.48;;;3.10;99.90;;;;;;6229016;22;87016;-79
2024/01/13 09:29:29;;;;;;;30.88;15.60;;;3.10;99.90;;;;;;6200685;22;86312;-79
2024/01/13 09:31:55;;;;;;;31.48;15.30;;;3.10;99.90;;;;;;6175854;22;86287;-79
2024/01/13 09:34:22;;;;;;;30.25;15.38;;;3.10;99.90;;;;;;6198603;22;88169;-79
2024/01/13 09:36:48;;;;;;;35.83;17.25;;;3.10;99.90;;;;;;6197370;22;86789;-79
2024/01/13 09:39:16;;;;;;;35.65;17.88;;;3.10;99.90;;;;;;6225548;22;85908;-79
2024/01/13 09:41:45;;;;;;;33.38;16.35;;;3.10;99.90;;;;;;6228521;22;85864;-80
2024/01/13 10:05:00;;;;;;;33.58;15.32;;;3.20;99.90;;;;;;6210903;22;88179;-81
2024/01/13 10:07:52;;;;;;;30.17;15.05;;;3.20;99.90;;;;;;6245296;22;87006;-83
2024/01/13 10:10:25;;;;;;;36.85;16.88;;;3.20;99.90;;;;;;6204191;22;85977;-83
2024/01/13 10:12:52;;;;;;;29.30;15.70;;;3.20;99.90;;;;;;6192580;22;85989;-81
2024/01/13 10:15:18;;;;;;;31.15;15.23;;;3.20;99.90;;;;;;6214226;22;86513;-80
2024/01/13 10:17:52;;;;;;;36.20;16.25;;;3.20;99.90;;;;;;6209837;22;87826;-80
2024/01/13 10:20:23;;;;;;;32.08;16.15;;;3.20;99.90;;;;;;6205698;22;86228;-80
2024/01/13 10:22:49;;;;;;;30.35;14.90;;;3.20;99.90;;;;;;6189884;22;86021;-82
2024/01/13 10:25:37;;;;;;;32.55;15.35;;;3.20;99.90;;;;;;6218442;22;89538;-82
2024/01/13 11:48:41;;;;;;;40.53;18.38;;;3.20;99.90;;;;;;6150018;22;85419;-78
2024/01/13 11:51:23;;;;;;;38.92;20.73;;;3.20;99.90;;;;;;6156276;22;86829;-79
2024/01/13 12:11:54;;;;;;;44.70;20.67;;;3.40;99.90;;;;;;4847447;27;88239;-75
2024/01/13 12:14:31;;;;;;;40.58;20.35;;;3.40;99.90;;;;;;4929643;28;95915;-74
2024/01/13 12:19:41;;;;;;;48.33;22.00;;;3.30;99.90;;;;;;5073120;22;88486;-78
2024/01/13 12:27:21;;;;;;;42.38;21.27;;;3.10;99.90;;;;;;5131150;22;88050;-76
2024/01/13 12:32:29;;;;;;;42.60;21.63;;;3.10;99.90;;;;;;5421754;22;87249;-75
2024/01/13 12:34:55;;;;;;;48.95;20.52;;;3.20;99.90;;;;;;5004309;28;86174;-75
2024/01/13 12:37:22;;;;;;;50.70;22.70;;;3.20;99.90;;;;;;5004835;28;85577;-79
2024/01/13 12:39:49;;;;;;;47.13;22.42;;;3.20;99.90;;;;;;5000355;28;86494;-77
2024/01/13 12:42:16;;;;;;;43.90;20.65;;;3.10;99.90;;;;;;5007423;28;85916;-79
2024/01/13 12:44:43;;;;;;;46.00;22.38;;;3.10;99.90;;;;;;4991411;28;85583;-75
2024/01/13 12:54:55;;;;;;;46.03;21.45;;;3.00;99.90;;;;;;5652926;22;86448;-72
2024/01/13 12:57:21;;;;;;;53.20;21.05;;;3.00;99.90;;;;;;4965208;28;86735;-74
2024/01/13 12:59:48;;;;;;;43.97;21.30;;;3.00;99.90;;;;;;4964853;28;89816;-79
2024/01/13 13:02:14;;;;;;;45.03;21.40;;;3.00;99.90;;;;;;4966475;28;86864;-75
2024/01/13 13:04:40;;;;;;;45.38;20.63;;;3.00;99.90;;;;;;4961699;28;86744;-73
2024/01/13 13:07:06;;;;;;;43.80;19.88;;;3.10;99.90;;;;;;4980548;28;86199;-76
2024/01/13 13:09:32;;;;;;;47.85;20.80;;;3.10;99.90;;;;;;4962399;28;87582;-76
2024/01/13 13:11:59;;;;;;;45.95;22.27;;;3.00;99.90;;;;;;4963746;28;86414;-75
2024/01/13 13:14:26;;;;;;;40.85;20.52;;;3.00;99.90;;;;;;4980923;28;86423;-76
2024/01/13 13:16:52;;;;;;;46.92;20.70;;;3.00;99.90;;;;;;4964139;28;86252;-73
2024/01/13 13:19:18;;;;;;;46.25;20.15;;;2.90;99.90;;;;;;4963944;28;88094;-76
2024/01/13 13:21:44;;;;;;;47.85;20.38;;;3.00;99.90;;;;;;4956859;28;86091;-74
2024/01/13 13:24:10;;;;;;;47.10;20.02;;;2.90;99.90;;;;;;4954987;28;86893;-74
2024/01/13 13:26:36;;;;;;;46.20;19.73;;;2.90;99.90;;;;;;4969917;28;86565;-76
2024/01/13 13:29:02;;;;;;;45.03;21.60;;;2.90;99.90;;;;;;4959627;28;87018;-76
2024/01/13 13:31:28;;;;;;;46.03;20.98;;;2.90;99.90;;;;;;4968980;28;86611;-75
2024/01/13 13:33:54;;;;;;;44.47;20.35;;;2.90;99.90;;;;;;5110860;22;87862;-79
2024/01/13 13:36:23;;;;;;;46.28;21.70;;;2.90;99.90;;;;;;4996255;27;85854;-77
2024/01/13 13:43:59;;;;;;;45.17;20.98;;;2.90;99.90;;;;;;5827589;22;87481;-78
2024/01/13 13:59:22;;;;;;;44.97;20.67;;;2.70;99.90;;;;;;6095534;22;89402;-77
2024/01/13 14:17:20;;;;;;;48.13;21.08;;;2.70;99.90;;;;;;5673360;22;86884;-78
2024/01/13 14:19:45;;;;;;;47.10;21.67;;;2.70;99.90;;;;;;4972883;28;87469;-76
2024/01/13 14:22:11;;;;;;;51.55;22.08;;;2.70;99.90;;;;;;5211368;22;86951;-77
2024/01/13 14:24:38;;;;;;;54.97;24.25;;;2.70;99.90;;;;;;4962695;28;86068;-75
2024/01/13 14:27:05;;;;;;;60.58;23.15;;;2.70;99.90;;;;;;4964137;28;85404;-79
2024/01/13 14:32:11;;;;;;;55.10;24.38;;;2.60;99.90;;;;;;5050564;22;86464;-74
2024/01/13 14:50:06;;;;;;;59.65;24.52;;;2.40;99.90;;;;;;5339382;22;87210;-78
2024/01/13 14:52:33;;;;;;;52.10;23.67;;;2.50;99.90;;;;;;4977864;28;86361;-77
2024/01/13 14:55:02;;;;;;;55.45;23.20;;;2.50;99.90;;;;;;4979308;28;85695;-76
2024/01/13 15:00:09;;;;;;;54.08;23.70;;;2.40;99.90;;;;;;5396691;22;86967;-75
2024/01/13 15:05:10;;;;;;;52.35;23.23;;;2.40;99.90;;;;;;5212306;23;86697;-75
2024/01/13 15:07:37;;;;;;;56.63;23.45;;;2.40;99.90;;;;;;4942407;28;86983;-77
2024/01/13 15:10:03;;;;;;;59.05;23.10;;;2.40;99.90;;;;;;5123393;22;86910;-74
2024/01/13 15:17:40;;;;;;;50.58;23.17;;;2.30;99.90;;;;;;5090167;22;86265;-75
2024/01/13 15:22:43;;;;;;;56.63;23.75;;;2.30;99.90;;;;;;5199864;22;86755;-74
2024/01/13 15:25:12;;;;;;;57.03;23.23;;;2.30;99.90;;;;;;4976485;28;85722;-74
2024/01/13 15:32:52;;;;;;;49.60;22.15;;;2.30;99.90;;;;;;5946028;22;86686;-75
2024/01/13 15:45:41;;;;;;;63.40;24.17;;;2.20;99.90;;;;;;4953042;22;87845;-75
2024/01/13 15:48:07;;;;;;;64.55;24.45;;;2.20;99.90;;;;;;5359933;22;86974;-74
2024/01/13 15:50:34;;;;;;;63.83;24.25;;;2.30;99.90;;;;;;5145448;22;88769;-80
2024/01/13 15:55:38;;;;;;;61.58;24.00;;;2.20;99.90;;;;;;5266066;22;87408;-77
2024/01/13 15:58:04;;;;;;;59.63;23.50;;;2.20;99.90;;;;;;4963509;28;86485;-78
2024/01/13 16:00:30;;;;;;;49.63;22.40;;;2.10;99.90;;;;;;4963281;28;86181;-78
2024/01/13 16:02:59;;;;;;;58.78;23.23;;;2.10;99.90;;;;;;4951392;28;86694;-78
2024/01/13 16:05:27;;;;;;;59.92;23.45;;;2.10;99.90;;;;;;4922624;28;86008;-78
2024/01/13 16:07:54;;;;;;;58.08;23.65;;;2.20;99.90;;;;;;4942987;28;86159;-80
2024/01/13 16:10:44;;;;;;;61.88;23.65;;;2.10;99.90;;;;;;4933352;28;87260;-78
2024/01/13 16:13:32;;;;;;;59.83;23.33;;;2.10;99.90;;;;;;4935220;28;86681;-78
2024/01/13 16:16:04;;;;;;;56.67;23.58;;;2.00;99.90;;;;;;4954084;28;86182;-81
2024/01/13 16:18:31;;;;;;;63.53;22.42;;;2.10;99.90;;;;;;4964793;28;86404;-80
2024/01/13 16:20:58;;;;;;;52.85;22.60;;;2.00;99.90;;;;;;4963793;28;85688;-80
2024/01/13 16:23:26;;;;;;;49.47;22.15;;;2.00;99.90;;;;;;4939442;28;86548;-78
2024/01/13 16:25:53;;;;;;;56.30;22.60;;;2.00;99.90;;;;;;4940682;28;85789;-78
2024/01/13 16:28:23;;;;;;;62.92;22.45;;;2.00;99.90;;;;;;4937758;28;86467;-78
2024/01/13 16:30:52;;;;;;;62.13;23.75;;;2.00;99.90;;;;;;4944781;28;87251;-77
2024/01/13 16:33:18;;;;;;;56.20;22.67;;;2.00;99.90;;;;;;4943837;28;87711;-79
2024/01/13 16:35:44;;;;;;;60.50;22.65;;;2.00;99.90;;;;;;4940029;28;86182;-78
2024/01/13 16:38:18;;;;;;;55.78;23.33;;;2.00;99.90;;;;;;4929376;28;86053;-77
2024/01/13 16:40:52;;;;;;;49.58;21.95;;;2.00;99.90;;;;;;4950416;28;88529;-79
2024/01/13 16:43:20;;;;;;;56.03;21.85;;;2.00;99.90;;;;;;4944017;28;86343;-78
2024/01/13 16:45:48;;;;;;;55.95;24.23;;;2.00;99.90;;;;;;4935991;28;85788;-79
2024/01/13 16:48:18;;;;;;;54.25;22.73;;;2.00;99.90;;;;;;4948374;28;86014;-79
2024/01/13 16:50:44;;;;;;;55.03;22.42;;;1.90;99.90;;;;;;4942788;28;87424;-78
2024/01/13 16:53:10;;;;;;;57.25;23.02;;;2.00;99.90;;;;;;4917266;28;87267;-76
2024/01/13 16:55:39;;;;;;;57.58;22.88;;;2.00;99.90;;;;;;4952693;28;86322;-77
2024/01/13 16:58:04;;;;;;;57.97;22.55;;;1.90;99.90;;;;;;4944412;28;86525;-77
2024/01/13 17:00:31;;;;;;;62.90;23.60;;;1.90;99.90;;;;;;4951016;28;86634;-77
2024/01/13 17:02:57;;;;;;;62.05;23.00;;;1.90;99.90;;;;;;4925772;28;87470;-78
2024/01/13 17:05:22;;;;;;;59.70;22.92;;;1.90;99.90;;;;;;4944514;28;87186;-78
2024/01/13 17:07:52;;;;;;;63.67;23.65;;;1.90;99.90;;;;;;4947204;28;86286;-78
2024/01/13 17:10:18;;;;;;;55.47;22.30;;;1.90;99.90;;;;;;4945287;28;87449;-77
2024/01/13 17:12:44;;;;;;;60.35;23.02;;;1.90;99.90;;;;;;4945025;28;87054;-77
2024/01/13 17:15:10;;;;;;;55.80;22.10;;;1.90;99.90;;;;;;4960666;28;86525;-77
2024/01/13 17:17:36;;;;;;;53.28;21.58;;;1.90;99.90;;;;;;4946291;28;86228;-77
2024/01/13 17:20:04;;;;;;;53.72;22.98;;;1.90;99.90;;;;;;4950238;28;88545;-77
2024/01/13 17:22:29;;;;;;;62.13;23.60;;;1.90;99.90;;;;;;4949282;28;87367;-77
2024/01/13 17:24:55;;;;;;;56.53;22.17;;;1.90;99.90;;;;;;4956434;28;86324;-75
2024/01/13 17:27:21;;;;;;;61.22;21.98;;;1.90;99.90;;;;;;4948943;28;85827;-77
2024/01/13 17:29:49;;;;;;;54.67;22.08;;;1.90;99.90;;;;;;4948663;28;90201;-78
2024/01/13 17:32:14;;;;;;;57.92;21.95;;;1.90;99.90;;;;;;4947324;28;86092;-77
2024/01/13 17:34:40;;;;;;;61.30;23.40;;;1.90;99.90;;;;;;4918129;28;86668;-77
2024/01/13 17:37:07;;;;;;;54.78;22.20;;;1.90;99.90;;;;;;4940990;28;86521;-76
2024/01/13 17:39:33;;;;;;;60.75;22.80;;;1.90;99.90;;;;;;4956186;28;88606;-78
2024/01/13 17:41:59;;;;;;;58.83;22.05;;;1.80;99.90;;;;;;4953139;28;86995;-77
2024/01/13 17:44:25;;;;;;;65.13;24.55;;;1.80;99.90;;;;;;4951149;28;86239;-80
2024/01/13 17:46:53;;;;;;;53.17;22.10;;;1.80;99.90;;;;;;4947815;28;87244;-78
2024/01/13 17:49:20;;;;;;;62.88;23.13;;;1.80;99.90;;;;;;4947700;28;88461;-77
2024/01/13 17:51:49;;;;;;;53.08;21.17;;;1.70;99.90;;;;;;4944962;28;86945;-76
2024/01/13 17:54:15;;;;;;;58.17;23.95;;;1.70;99.90;;;;;;4959933;28;86367;-78
2024/01/13 17:56:41;;;;;;;63.25;22.75;;;1.80;99.90;;;;;;4945564;28;86535;-78
2024/01/13 17:59:07;;;;;;;62.65;23.00;;;1.70;99.90;;;;;;4942110;28;87651;-78
2024/01/13 18:01:32;;;;;;;63.45;23.55;;;1.70;99.90;;;;;;4947937;28;87242;-78
2024/01/13 18:04:00;;;;;;;58.53;22.70;;;1.70;99.90;;;;;;4943973;28;85763;-77
2024/01/13 18:06:26;;;;;;;57.88;22.80;;;1.70;99.90;;;;;;4941542;28;87242;-78
2024/01/13 18:08:54;;;;;;;61.05;22.67;;;1.70;99.90;;;;;;4946520;28;85807;-79
2024/01/13 18:11:20;;;;;;;53.33;21.17;;;1.70;99.90;;;;;;4939755;28;86796;-79
2024/01/13 18:13:46;;;;;;;64.40;23.17;;;1.70;99.90;;;;;;4946322;28;86670;-77
2024/01/13 18:16:12;;;;;;;53.25;22.08;;;1.70;99.90;;;;;;4967050;28;86386;-78
2024/01/13 18:18:37;;;;;;;67.30;24.27;;;1.70;99.90;;;;;;4946071;28;88087;-78
2024/01/13 18:21:03;;;;;;;63.10;23.63;;;1.60;99.90;;;;;;4951851;28;87042;-77
2024/01/13 18:23:29;;;;;;;62.97;22.27;;;1.70;99.90;;;;;;4951118;28;86436;-77
2024/01/13 18:25:56;;;;;;;64.72;22.33;;;1.60;99.90;;;;;;4947655;28;86620;-76
2024/01/13 18:28:23;;;;;;;57.83;22.08;;;1.60;99.90;;;;;;4943319;28;87946;-77
2024/01/13 18:30:49;;;;;;;57.92;22.88;;;1.60;99.90;;;;;;4943849;28;87579;-78
2024/01/13 18:33:15;;;;;;;63.55;22.30;;;1.70;99.90;;;;;;4942412;28;86651;-77
2024/01/13 18:35:40;;;;;;;61.42;22.88;;;1.60;99.90;;;;;;4943211;28;85947;-78
2024/01/13 18:38:07;;;;;;;62.22;23.33;;;1.60;99.90;;;;;;4944932;28;87380;-78
2024/01/13 18:40:33;;;;;;;56.70;22.45;;;1.60;99.90;;;;;;4942089;28;88347;-78
2024/01/13 18:42:59;;;;;;;61.38;23.90;;;1.60;99.90;;;;;;4946866;28;86138;-77
2024/01/13 18:45:25;;;;;;;67.13;22.80;;;1.60;99.90;;;;;;4935814;28;86789;-78
2024/01/13 18:47:51;;;;;;;71.20;23.73;;;1.60;99.90;;;;;;4940737;28;87396;-77
2024/01/13 18:50:17;;;;;;;58.22;22.52;;;1.60;99.90;;;;;;4944380;28;86648;-78
2024/01/13 18:52:42;;;;;;;60.13;22.05;;;1.60;99.90;;;;;;4945634;28;86391;-77
2024/01/13 18:55:08;;;;;;;63.92;23.95;;;1.60;99.90;;;;;;4943830;28;87010;-78
2024/01/13 18:57:35;;;;;;;64.82;24.45;;;1.60;99.90;;;;;;4947097;28;87167;-76
2024/01/13 19:00:01;;;;;;;58.13;23.08;;;1.60;99.90;;;;;;4946175;28;86869;-75
2024/01/13 19:02:29;;;;;;;66.15;25.23;;;1.60;99.90;;;;;;4942049;28;86534;-76
2024/01/13 19:04:56;;;;;;;72.75;24.35;;;1.50;99.90;;;;;;4941225;28;87135;-77
2024/01/13 19:07:22;;;;;;;68.60;25.02;;;1.60;99.90;;;;;;4947178;28;86803;-76
2024/01/13 19:09:49;;;;;;;65.38;24.42;;;1.50;99.90;;;;;;4941793;28;87550;-77
2024/01/13 19:12:15;;;;;;;65.57;24.20;;;1.50;99.90;;;;;;4947868;28;86536;-77
2024/01/13 19:14:41;;;;;;;72.50;25.15;;;1.50;99.90;;;;;;4940685;28;85978;-77
2024/01/13 19:17:08;;;;;;;62.20;25.15;;;1.60;99.90;;;;;;4942570;28;87570;-77
2024/01/13 19:19:34;;;;;;;67.50;24.40;;;1.50;99.90;;;;;;4943315;28;87339;-76
2024/01/13 19:22:00;;;;;;;70.90;23.77;;;1.50;99.90;;;;;;4939518;28;86883;-76
2024/01/13 19:24:27;;;;;;;59.92;22.88;;;1.50;99.90;;;;;;4940057;28;85872;-76
2024/01/13 19:26:53;;;;;;;75.28;24.75;;;1.50;99.90;;;;;;4944460;28;88499;-77
2024/01/13 19:29:19;;;;;;;71.78;24.83;;;1.50;99.90;;;;;;4947968;28;87468;-76
2024/01/13 19:31:44;;;;;;;67.90;24.17;;;1.50;99.90;;;;;;4949844;28;87016;-76
2024/01/13 19:34:11;;;;;;;74.05;27.25;;;1.50;99.90;;;;;;4955052;28;86237;-77
2024/01/13 19:36:42;;;;;;;72.53;26.77;;;1.50;99.90;;;;;;4957290;28;86966;-76
2024/01/13 19:39:08;;;;;;;70.72;23.23;;;1.40;99.90;;;;;;4945819;28;86349;-77
2024/01/13 19:41:34;;;;;;;75.85;24.95;;;1.40;99.90;;;;;;4951978;28;85951;-75
2024/01/13 19:44:01;;;;;;;67.80;26.30;;;1.40;99.90;;;;;;4947752;28;86693;-76
2024/01/13 19:46:27;;;;;;;68.10;24.83;;;1.40;99.90;;;;;;4950378;28;87028;-75
2024/01/13 19:48:53;;;;;;;77.47;25.45;;;1.40;99.90;;;;;;4944130;28;86661;-76
2024/01/13 19:51:18;;;;;;;75.10;25.63;;;1.30;99.90;;;;;;4946748;28;86444;-76
2024/01/13 19:53:44;;;;;;;74.78;24.17;;;1.30;99.90;;;;;;4946282;28;86601;-75
2024/01/13 19:56:10;;;;;;;82.18;25.27;;;1.30;99.90;;;;;;4945601;28;88619;-74
2024/01/13 19:58:37;;;;;;;81.13;26.95;;;1.30;99.90;;;;;;4944344;28;87594;-74
2024/01/13 20:01:03;;;;;;;78.75;25.15;;;1.30;99.90;;;;;;4944583;28;86728;-75
2024/01/13 20:03:29;;;;;;;75.82;25.08;;;1.30;99.90;;;;;;4947288;28;86472;-75
2024/01/13 20:05:54;;;;;;;71.20;25.13;;;1.30;99.90;;;;;;4950074;28;86614;-75
2024/01/13 20:08:22;;;;;;;72.88;25.95;;;1.30;99.90;;;;;;4950262;28;87272;-75
2024/01/13 20:10:48;;;;;;;71.88;23.80;;;1.30;99.90;;;;;;4942729;28;86444;-75
2024/01/13 20:13:14;;;;;;;71.90;26.88;;;1.30;99.90;;;;;;4937436;28;86234;-75
2024/01/13 20:15:40;;;;;;;73.25;24.88;;;1.20;99.90;;;;;;4946537;28;88320;-75
2024/01/13 20:18:06;;;;;;;74.75;24.98;;;1.30;99.90;;;;;;4942928;28;86518;-75
2024/01/13 20:20:32;;;;;;;79.82;26.00;;;1.30;99.90;;;;;;4943165;28;86254;-75
2024/01/13 20:22:57;;;;;;;76.65;25.63;;;1.30;99.90;;;;;;4939530;28;86722;-76
2024/01/13 20:25:23;;;;;;;74.32;25.10;;;1.30;99.90;;;;;;4947373;28;88254;-76
2024/01/13 20:27:49;;;;;;;72.55;26.17;;;1.20;99.90;;;;;;4946636;28;86264;-74
2024/01/13 20:30:15;;;;;;;79.78;25.90;;;1.30;99.90;;;;;;4943432;28;86566;-76
2024/01/13 20:32:42;;;;;;;77.68;28.15;;;1.30;99.90;;;;;;4946073;28;86314;-75
2024/01/13 20:35:08;;;;;;;73.18;25.17;;;1.30;99.90;;;;;;4949673;28;87629;-75
2024/01/13 20:37:34;;;;;;;74.63;26.00;;;1.30;99.90;;;;;;4946699;28;86751;-74
2024/01/13 20:40:00;;;;;;;73.47;26.20;;;1.30;99.90;;;;;;4950663;28;86042;-75
2024/01/13 20:42:28;;;;;;;76.53;26.90;;;1.20;99.90;;;;;;4947934;28;86435;-79
2024/01/13 20:44:56;;;;;;;85.00;27.33;;;1.30;99.90;;;;;;4938588;28;87052;-74
2024/01/13 20:47:22;;;;;;;79.25;27.25;;;1.30;99.90;;;;;;4944727;28;87793;-75
2024/01/13 20:49:49;;;;;;;83.63;26.48;;;1.20;99.90;;;;;;4942792;28;86891;-75
2024/01/13 20:52:14;;;;;;;74.47;26.35;;;1.20;99.90;;;;;;4953121;28;86466;-75
2024/01/13 20:54:40;;;;;;;79.13;25.38;;;1.20;99.90;;;;;;4950114;28;87478;-74
2024/01/13 20:57:06;;;;;;;81.03;28.33;;;1.20;99.90;;;;;;4943268;28;87807;-73
2024/01/13 20:59:33;;;;;;;76.40;28.10;;;1.20;99.90;;;;;;4949431;28;86585;-74
2024/01/13 21:01:59;;;;;;;81.68;25.90;;;1.20;99.90;;;;;;4944374;28;87273;-74
2024/01/13 21:04:26;;;;;;;81.78;26.48;;;1.10;99.90;;;;;;4950511;28;86658;-74
2024/01/13 21:06:52;;;;;;;95.53;27.45;;;1.20;99.90;;;;;;4950333;28;86361;-74
2024/01/13 21:09:20;;;;;;;76.22;26.60;;;1.20;99.90;;;;;;4949114;28;87232;-73
2024/01/13 21:11:52;;;;;;;84.45;28.75;;;1.20;99.90;;;;;;4948757;28;86468;-73
2024/01/13 21:14:19;;;;;;;79.30;26.10;;;1.20;99.90;;;;;;4946460;28;86798;-74
2024/01/13 21:16:45;;;;;;;76.78;26.08;;;1.20;99.90;;;;;;4949072;28;87293;-73
2024/01/13 21:19:11;;;;;;;77.47;26.48;;;1.30;99.90;;;;;;4943300;28;86769;-73
2024/01/13 21:21:37;;;;;;;77.07;25.88;;;1.30;99.90;;;;;;4946665;28;86348;-74
2024/01/13 21:24:04;;;;;;;75.60;26.80;;;1.30;99.90;;;;;;4942492;28;87190;-73
2024/01/13 21:26:29;;;;;;;78.70;27.80;;;1.30;99.90;;;;;;4947995;28;86923;-73
2024/01/13 21:28:56;;;;;;;80.00;26.38;;;1.30;99.90;;;;;;4947212;28;86000;-73
2024/01/13 21:31:23;;;;;;;87.28;28.42;;;1.30;99.90;;;;;;4951857;28;88206;-75
2024/01/13 21:33:50;;;;;;;83.90;27.70;;;1.30;99.90;;;;;;4948097;28;87334;-75
2024/01/13 21:36:16;;;;;;;81.80;27.38;;;1.30;99.90;;;;;;4946962;28;86935;-76
2024/01/13 21:38:48;;;;;;;78.57;26.52;;;1.30;99.90;;;;;;4945359;28;85919;-76
2024/01/13 21:41:15;;;;;;;87.82;27.25;;;1.30;99.90;;;;;;4946996;28;86427;-76
2024/01/13 21:43:41;;;;;;;80.40;27.13;;;1.30;99.90;;;;;;4945428;28;87440;-76
2024/01/13 21:46:09;;;;;;;93.93;28.50;;;1.30;99.90;;;;;;4945105;28;86827;-75
2024/01/13 21:48:35;;;;;;;79.80;27.33;;;1.30;99.90;;;;;;4945544;28;86337;-76
2024/01/13 21:51:01;;;;;;;81.95;26.45;;;1.30;99.90;;;;;;4944097;28;86197;-76
2024/01/13 21:53:27;;;;;;;84.25;26.08;;;1.30;99.90;;;;;;4948333;28;87843;-75
2024/01/13 21:55:53;;;;;;;72.45;25.63;;;1.30;99.90;;;;;;4952350;28;86648;-79
2024/01/13 21:58:19;;;;;;;77.93;28.88;;;1.30;99.90;;;;;;4945376;28;86887;-75
2024/01/13 22:00:45;;;;;;;74.82;26.45;;;1.40;99.90;;;;;;4942599;28;86147;-76
2024/01/13 22:03:11;;;;;;;78.95;27.65;;;1.40;99.90;;;;;;4943282;28;87470;-76
2024/01/13 22:05:37;;;;;;;73.65;27.25;;;1.40;99.90;;;;;;4949126;28;88604;-75
2024/01/13 22:08:03;;;;;;;76.82;28.30;;;1.40;99.90;;;;;;4947195;28;88303;-75
2024/01/13 22:10:35;;;;;;;83.43;28.95;;;1.30;99.90;;;;;;4948142;28;86726;-79
2024/01/13 22:13:01;;;;;;;87.05;29.25;;;1.40;99.90;;;;;;4949414;28;87371;-76
2024/01/13 22:15:29;;;;;;;77.60;27.10;;;1.30;99.90;;;;;;4948110;28;88710;-76
2024/01/13 22:17:54;;;;;;;80.05;27.88;;;1.30;99.90;;;;;;4945561;28;86673;-76
2024/01/13 22:20:20;;;;;;;73.35;26.95;;;1.30;99.90;;;;;;4949306;28;86467;-75
2024/01/13 22:22:46;;;;;;;84.03;27.95;;;1.30;99.90;;;;;;4939737;28;86993;-75
2024/01/13 22:25:12;;;;;;;77.35;27.13;;;1.30;99.90;;;;;;4948969;28;87252;-76
2024/01/13 22:27:38;;;;;;;80.75;28.73;;;1.30;99.90;;;;;;4944269;28;86170;-75
2024/01/13 22:30:04;;;;;;;85.28;29.95;;;1.30;99.90;;;;;;4943949;28;86553;-76
2024/01/13 22:32:30;;;;;;;91.90;28.95;;;1.30;99.90;;;;;;4948395;28;87724;-75
2024/01/13 22:34:56;;;;;;;101.55;31.10;;;1.30;99.90;;;;;;4938196;28;86585;-76
2024/01/13 22:37:21;;;;;;;86.47;30.05;;;1.30;99.90;;;;;;4941469;28;86092;-75
2024/01/13 22:39:47;;;;;;;88.18;28.67;;;1.30;99.90;;;;;;4939525;28;85933;-75
2024/01/13 22:42:14;;;;;;;83.28;28.30;;;1.30;99.90;;;;;;4937227;28;87776;-75
2024/01/13 22:44:40;;;;;;;88.85;29.27;;;1.30;99.90;;;;;;4943747;28;86959;-75
2024/01/13 22:47:06;;;;;;;79.28;27.48;;;1.30;99.90;;;;;;4939328;28;85853;-75
2024/01/13 22:49:32;;;;;;;91.05;29.65;;;1.30;99.90;;;;;;4940889;28;86133;-76
2024/01/13 22:51:58;;;;;;;86.35;29.15;;;1.30;99.90;;;;;;4948822;28;88540;-76
2024/01/13 22:54:24;;;;;;;80.38;28.52;;;1.30;99.90;;;;;;4948809;28;87220;-76
2024/01/13 22:56:51;;;;;;;78.88;28.00;;;1.30;99.90;;;;;;4947269;28;86425;-76
2024/01/13 22:59:17;;;;;;;87.60;28.48;;;1.40;99.90;;;;;;4948403;28;87252;-76
2024/01/13 23:01:43;;;;;;;84.88;30.08;;;1.40;99.90;;;;;;4954860;28;87261;-75
2024/01/13 23:04:09;;;;;;;82.15;26.55;;;1.40;99.90;;;;;;4942940;28;86690;-76
2024/01/13 23:06:35;;;;;;;77.90;27.63;;;1.30;99.90;;;;;;4945160;28;86460;-75
2024/01/13 23:09:01;;;;;;;86.22;27.02;;;1.40;99.90;;;;;;4946442;28;86934;-75
2024/01/13 23:11:26;;;;;;;86.70;27.83;;;1.40;99.90;;;;;;4947698;28;88365;-76
2024/01/13 23:13:53;;;;;;;81.18;28.48;;;1.40;99.90;;;;;;4950375;28;87670;-76
2024/01/13 23:16:19;;;;;;;80.70;29.10;;;1.40;99.90;;;;;;4950589;28;86193;-76
2024/01/13 23:18:48;;;;;;;89.70;28.55;;;1.40;99.90;;;;;;4952245;28;86451;-75
2024/01/13 23:21:13;;;;;;;78.03;26.58;;;1.40;99.90;;;;;;4943039;28;87441;-76
2024/01/13 23:23:40;;;;;;;93.85;28.95;;;1.40;99.90;;;;;;4943436;28;87342;-76
2024/01/13 23:26:08;;;;;;;73.32;26.33;;;1.40;99.90;;;;;;4943307;28;86584;-77
2024/01/13 23:28:36;;;;;;;86.95;28.52;;;1.40;99.90;;;;;;4953705;28;85882;-76
2024/01/13 23:31:02;;;;;;;83.93;29.77;;;1.40;99.90;;;;;;4944080;28;86823;-77
2024/01/13 23:33:27;;;;;;;86.18;28.42;;;1.40;99.90;;;;;;4952423;28;88022;-75
2024/01/13 23:35:53;;;;;;;77.00;27.80;;;1.40;99.90;;;;;;4945980;28;85970;-76
2024/01/13 23:38:19;;;;;;;85.40;27.63;;;1.40;99.90;;;;;;4937081;28;85914;-77
2024/01/13 23:40:45;;;;;;;81.50;28.25;;;1.40;99.90;;;;;;4943051;28;87489;-76
2024/01/13 23:43:10;;;;;;;83.72;28.40;;;1.40;99.90;;;;;;4948538;28;86473;-79
2024/01/13 23:45:36;;;;;;;84.68;27.77;;;1.40;99.90;;;;;;4949527;28;86285;-77
2024/01/13 23:48:03;;;;;;;74.38;27.65;;;1.40;99.90;;;;;;4947974;28;86066;-75
2024/01/13 23:50:32;;;;;;;82.35;27.98;;;1.40;99.90;;;;;;4952317;28;88420;-76
2024/01/13 23:52:58;;;;;;;86.38;28.13;;;1.40;99.90;;;;;;4953172;28;87437;-76
2024/01/13 23:55:25;;;;;;;81.78;27.85;;;1.40;99.90;;;;;;4942986;28;86508;-76
2024/01/13 23:57:50;;;;;;;82.10;28.52;;;1.40;99.90;;;;;;4945047;28;86865;-76
